サマルカンド の空港の天気 - METARとTAF

サマルカンド空港 ( UTSS / SKD ) - ウズベキスタン サマルカンド
飛行場実況気象(Metar)
観測時間11/19 14:00 UZT (11/19 09:00 UTC)
風向・風速北 1m/s
視程10km以上
天気現象
なし
気温17℃
湿度25%
気圧1020hPa
METARUTSS 190900Z 36002KT 9999 NSC 17/M03 Q1020 R09/70D NOSIG
過去の天気等 Google飛行場航空写真 Wunderground天気予報

過去48時間のMETAR

飛行場予報(TAF)
発表時間: 11/19 10:00 UZT (11/19 05:00 UTC)
予報対象時間: 19日11時 UZT ~ 20日11時 UZT
風向・風速東 5m/s
視程10km以上
なし
19日11時 UZT ~ 19日17時 UZT に一時的に
風向・風速北西 5m/s
19日20時 UZT ~ 20日2時 UZT に一時的に
風向・風速南南東 5m/s 瞬間風速 10m/s
少しの積乱雲 雲底高度 2010m
20日2時 UZT ~ 20日11時 UZT に一時的に
風向・風速西 5m/s 瞬間風速 10m/s
視程5000m
天気現象弱いしゅう雨 もや
全天の4割程度の雲 雲底高度 270m
全天の8割程度の積乱雲 雲底高度 1010m
TAF COR UTSS 190500Z 1906/2006 08010KT 9999 NSC
TEMPO 1906/1912 32010KT
TEMPO 1915/1921 15010G20KT FEW066CB
TEMPO 1921/2006 27010G20KT 5000 -SHRA BR SCT009 BKN033CB